METAR Data
IDs: Format: Raw Decoded Include TAF

Data at: 0118 UTC 16 Jan 2019

KHHF 160115Z AUTO 12004KT 10SM CLR 07/03 A3009 RMK AO2 T00670034
KHHF 160055Z AUTO 14004KT 10SM CLR 09/04 A3009 RMK AO2 T00860042
KHHF 160035Z AUTO 11004KT 10SM CLR 08/04 A3008 RMK AO2 T00840038
KHHF 160015Z AUTO 13005KT 10SM CLR 10/04 A3008 RMK AO2 T00990044
KHHF 152355Z AUTO 15004KT 10SM CLR 11/05 A3007 RMK AO2 T01080045 10160 20086
KHHF 152335Z AUTO 15006KT 10SM CLR 13/05 A3006 RMK AO2 T01250049
KHHF 152315Z AUTO 17009KT 10SM CLR 13/05 A3006 RMK AO2 T01330048
KHHF 152255Z AUTO 16008KT 10SM CLR 14/05 A3005 RMK AO2 T01400050
KHHF 152235Z AUTO 16009KT 10SM CLR 15/05 A3005 RMK AO2 T01450048
KHHF 152215Z AUTO 17011KT 10SM CLR 15/04 A3005 RMK AO2 T01510044
KHHF 152155Z AUTO 16006KT 10SM CLR 16/04 A3005 RMK AO2 T01560043
KHHF 152135Z AUTO 14005KT 10SM CLR 16/04 A3005 RMK AO2 T01560044
KHHF 152115Z AUTO 14009KT 10SM CLR 16/04 A3006 RMK AO2 T01560044
KHHF 152055Z AUTO 17005KT 10SM CLR 15/05 A3006 RMK AO2 T01500045
KHHF 152035Z AUTO 16006KT 10SM CLR 15/04 A3006 RMK AO2 T01470043
KHHF 152015Z AUTO 22005KT 10SM CLR 15/04 A3007 RMK AO2 T01450038
KHHF 151955Z AUTO 19004KT 10SM CLR 14/04 A3008 RMK AO2 T01420036
KHHF 151935Z AUTO 19006KT 10SM CLR 13/04 A3009 RMK AO2 T01320036
KHHF 151915Z AUTO 20004KT 10SM CLR 12/04 A3010 RMK AO2 T01220037
KHHF 151855Z AUTO 21005KT 10SM CLR 11/04 A3012 RMK AO2 T01140036
KHHF 151835Z AUTO 19004KT 10SM CLR 11/04 A3013 RMK AO2 T01100040
KHHF 151815Z AUTO 00000KT 10SM CLR 10/04 A3015 RMK AO2 T01000039
KHHF 151755Z AUTO 00000KT 10SM CLR 09/04 A3017 RMK AO2 T00860036 10086 21033
KHHF 151735Z AUTO 00000KT 10SM CLR 07/04 A3018 RMK AO2 T00730035
KHHF 151715Z AUTO 00000KT 10SM CLR 06/03 A3019 RMK AO2 T00560030
KHHF 151655Z AUTO 00000KT 10SM CLR 04/03 A3019 RMK AO2 T00420025
KHHF 151635Z AUTO 00000KT 10SM CLR 03/02 A3019 RMK AO2 T00300020
KHHF 151615Z AUTO 00000KT 7SM CLR 02/02 A3019 RMK AO2 T00220016
KHHF 151555Z AUTO 00000KT 7SM CLR 02/01 A3019 RMK AO2 T00150010
KHHF 151535Z AUTO 00000KT 5SM BR CLR 01/01 A3019 RMK AO2 T00080005
KHHF 151515Z AUTO 00000KT 5SM BR CLR 00/00 A3019 RMK AO2 T00011001
KHHF 151455Z AUTO 00000KT 5SM BR CLR M01/M01 A3019 RMK AO2 T10071010
KHHF 151435Z AUTO 00000KT 7SM CLR M02/M02 A3019 RMK AO2 T10181022
KHHF 151415Z AUTO 00000KT 7SM CLR M03/M03 A3019 RMK AO2 T10301033
KHHF 151355Z AUTO 00000KT 7SM CLR M03/M04 A3019 RMK AO2 T10331037
KHHF 151335Z AUTO 19003KT 7SM CLR M02/M03 A3019 RMK AO2 T10251028
KHHF 151315Z AUTO 00000KT 7SM CLR M02/M02 A3019 RMK AO2 T10201024
KHHF 151255Z AUTO 00000KT 7SM CLR M02/M02 A3018 RMK AO2 T10181021
KHHF 151235Z AUTO 00000KT 7SM CLR M02/M02 A3018 RMK AO2 T10181022
KHHF 151215Z AUTO 00000KT 7SM CLR M02/M02 A3018 RMK AO2 T10211025
KHHF 151155Z AUTO 00000KT 10SM CLR M02/M02 A3017 RMK AO2 T10201025 10024 21031
KHHF 151135Z AUTO 00000KT 10SM CLR M02/M03 A3017 RMK AO2 T10251029
KHHF 151115Z AUTO 00000KT 7SM CLR M02/M02 A3017 RMK AO2 T10171020
KHHF 151055Z AUTO 00000KT 10SM CLR M02/M02 A3017 RMK AO2 T10161020
KHHF 151035Z AUTO 00000KT 10SM CLR M01/M02 A3017 RMK AO2 T10131017
KHHF 151015Z AUTO 00000KT 10SM CLR M01/M01 A3017 RMK AO2 T10101015
KHHF 150955Z AUTO 00000KT 10SM CLR 00/M01 A3018 RMK AO2 T10021006
KHHF 150940Z AUTO 00000KT 10SM CLR M01/M01 A3019 RMK AO2 T10061010
KHHF 150915Z AUTO 00000KT 10SM CLR M01/M01 A3019 RMK AO2 T10091013
KHHF 150855Z AUTO 25004KT 10SM CLR M01/M01 A3019 RMK AO2 T10111015
KHHF 150835Z AUTO 00000KT 10SM CLR M01/M01 A3019 RMK AO2 T10071011
KHHF 150815Z AUTO 21003KT 10SM CLR M01/M02 A3019 RMK AO2 T10111016
KHHF 150755Z AUTO 17004KT 10SM CLR 00/00 A3019 RMK AO2 T00011003
KHHF 150735Z AUTO 00000KT 10SM CLR 00/M01 A3019 RMK AO2 T10021010
KHHF 150715Z AUTO 00000KT 10SM CLR 01/00 A3019 RMK AO2 T00090001
KHHF 150655Z AUTO 00000KT 10SM CLR 02/01 A3019 RMK AO2 T00170006
KHHF 150635Z AUTO 00000KT 10SM CLR 02/01 A3020 RMK AO2 T00220008
KHHF 150615Z AUTO 02003KT 10SM CLR 02/01 A3021 RMK AO2 T00150005
KHHF 150555Z AUTO 00000KT 10SM CLR 02/01 A3023 RMK AO2 T00230009 10113 20015 401480001
KHHF 150535Z AUTO 00000KT 10SM CLR 02/01 A3024 RMK AO2 T00190006
KHHF 150515Z AUTO 00000KT 10SM CLR 02/01 A3024 RMK AO2 T00200005
KHHF 150455Z AUTO 24004KT 10SM CLR 02/01 A3024 RMK AO2 T00210005
KHHF 150435Z AUTO 24005KT 10SM CLR 03/01 A3024 RMK AO2 T00260007
KHHF 150415Z AUTO 24005KT 10SM CLR 03/01 A3023 RMK AO2 T00340009
KHHF 150355Z AUTO 23007KT 10SM CLR 04/01 A3024 RMK AO2 T00380011
KHHF 150335Z AUTO 23007KT 10SM CLR 04/01 A3024 RMK AO2 T00410011
KHHF 150315Z AUTO 23006KT 10SM CLR 04/01 A3024 RMK AO2 T00430011
KHHF 150255Z AUTO 24006KT 10SM CLR 05/01 A3024 RMK AO2 T00490011
KHHF 150235Z AUTO 21009KT 10SM CLR 06/02 A3024 RMK AO2 T00630016
KHHF 150215Z AUTO 19012KT 10SM CLR 07/02 A3023 RMK AO2 T00700016
KHHF 150155Z AUTO 18012G17KT 10SM CLR 07/02 A3022 RMK AO2 T00710016
KHHF 150135Z AUTO 18010KT 10SM CLR 07/02 A3022 RMK AO2 T00740017
KHHF 150115Z AUTO 17010G15KT 10SM CLR 08/02 A3022 RMK AO2 T00770017
KHHF 150055Z AUTO 17010KT 10SM CLR 08/02 A3021 RMK AO2 T00780015
KHHF 150035Z AUTO 16008KT 10SM CLR 09/02 A3021 RMK AO2 T00850016
KHHF 150015Z AUTO 15008KT 10SM CLR 09/02 A3021 RMK AO2 T00890016
KHHF 142355Z AUTO 15003KT 10SM CLR 11/02 A3021 RMK AO2 T01130015 10148 20100
KHHF 142335Z AUTO 00000KT 10SM CLR 13/01 A3021 RMK AO2 T01270013
KHHF 142315Z AUTO 30005KT 10SM CLR 13/01 A3020 RMK AO2 T01330014
KHHF 142255Z AUTO 25005KT 10SM CLR 14/01 A3020 RMK AO2 T01380014
KHHF 142235Z AUTO 26005KT 10SM CLR 14/01 A3021 RMK AO2 T01410013
KHHF 142215Z AUTO 24005KT 10SM SCT050 14/01 A3021 RMK AO2 T01430012
KHHF 142155Z AUTO 26010KT 10SM SCT050 15/01 A3021 RMK AO2 T01450014
KHHF 142135Z AUTO 23007KT 10SM SCT050 14/02 A3021 RMK AO2 T01440015
KHHF 142115Z AUTO 23009KT 190V260 10SM SCT050 14/01 A3021 RMK AO2 T01430014
KHHF 142055Z AUTO 23007KT 10SM SCT050 14/01 A3022 RMK AO2 T01420013
KHHF 142035Z AUTO 24009KT 10SM SCT050 14/02 A3022 RMK AO2 T01420015
KHHF 142015Z AUTO 24006KT 10SM CLR 14/02 A3023 RMK AO2 T01350015
KHHF 141955Z AUTO 25005G15KT 10SM SCT049 14/02 A3023 RMK AO2 T01360015
KHHF 141935Z AUTO 25010KT 10SM SCT049 14/02 A3025 RMK AO2 T01360016
KHHF 141915Z AUTO 26009KT 10SM CLR 13/01 A3026 RMK AO2 T01310013
KHHF 141855Z AUTO 23008KT 10SM CLR 13/01 A3027 RMK AO2 T01270011
KHHF 141835Z AUTO 21005KT 10SM CLR 12/01 A3029 RMK AO2 T01160006
KHHF 141815Z AUTO 19003KT 10SM CLR 11/01 A3031 RMK AO2 T01100006
KHHF 141755Z AUTO 24006KT 10SM CLR 10/00 A3033 RMK AO2 T01000004 10100 20015
KHHF 141735Z AUTO 23009KT 10SM CLR 09/01 A3034 RMK AO2 T00940005
KHHF 141715Z AUTO 23007KT 10SM CLR 08/01 A3035 RMK AO2 T00830008
KHHF 141655Z AUTO 21007KT 10SM CLR 07/01 A3035 RMK AO2 T00720010
KHHF 141635Z AUTO 22005KT 10SM CLR 06/01 A3036 RMK AO2 T00570012
KHHF 141620Z AUTO 21003KT 10SM CLR 05/01 A3036 RMK AO2 T00470011
KHHF 141555Z AUTO 28004KT 10SM SCT065 03/01 A3036 RMK AO2 T00340005
KHHF 141535Z AUTO 21006KT 10SM OVC065 03/01 A3034 RMK AO2 T00310007
KHHF 141515Z AUTO 21005KT 10SM OVC065 03/01 A3034 RMK AO2 T00260005
KHHF 141455Z AUTO 00000KT 7SM OVC065 02/01 A3035 RMK AO2 T00240006
KHHF 141435Z AUTO 21003KT 7SM OVC065 02/00 A3035 RMK AO2 T00190003
KHHF 141415Z AUTO 00000KT 7SM OVC065 02/00 A3035 RMK AO2 T00150001
KHHF 141355Z AUTO 00000KT 10SM OVC065 02/00 A3035 RMK AO2 T00150000
KHHF 141335Z AUTO 19004KT 7SM OVC075 02/00 A3035 RMK AO2 T00150000